Time;durP1;ratioP1;P1;durP2;ratioP2;P2;SDS_P1;SDS_P2;PMS_P1;PMS_P2;Temp;Humidity;BMP_temperature;BMP_pressure;BME280_temperature;BME280_humidity;BME280_pressure;Samples;Min_cycle;Max_cycle;Signal;HPM_P1;HPM_P2
2023/11/25 00:02:15;;;;;;;1.63;1.40;;;3.60;98.20;;;;;;5028476;28;20533;-79
2023/11/25 00:04:43;;;;;;;1.63;1.40;;;3.60;98.20;;;;;;5032585;28;20855;-78
2023/11/25 00:07:09;;;;;;;1.70;1.53;;;3.70;98.20;;;;;;5028174;28;20527;-80
2023/11/25 00:09:36;;;;;;;1.67;1.43;;;3.70;98.20;;;;;;5033852;28;20459;-78
2023/11/25 00:12:03;;;;;;;1.60;1.30;;;3.60;98.20;;;;;;5032963;28;20486;-78
2023/11/25 00:14:30;;;;;;;1.60;1.40;;;3.60;98.20;;;;;;5025049;28;20768;-77
2023/11/25 00:16:58;;;;;;;1.67;1.40;;;3.60;98.20;;;;;;5032800;28;20481;-78
2023/11/25 00:19:25;;;;;;;1.63;1.40;;;3.60;98.20;;;;;;5030674;28;20491;-78
2023/11/25 00:21:52;;;;;;;1.60;1.30;;;3.60;98.20;;;;;;5028090;28;20478;-77
2023/11/25 00:24:19;;;;;;;1.60;1.30;;;3.50;98.20;;;;;;5033655;28;20483;-77
2023/11/25 00:26:46;;;;;;;1.70;1.50;;;3.50;98.20;;;;;;5028062;28;20484;-77
2023/11/25 00:29:12;;;;;;;1.67;1.40;;;3.50;98.20;;;;;;5035304;28;20466;-78
2023/11/25 00:31:39;;;;;;;1.63;1.50;;;3.40;98.20;;;;;;5026121;28;20512;-77
2023/11/25 00:34:07;;;;;;;1.60;1.40;;;3.40;98.20;;;;;;5040786;28;20493;-78
2023/11/25 00:36:34;;;;;;;1.63;1.40;;;3.40;98.20;;;;;;5026847;28;20557;-78
2023/11/25 00:39:01;;;;;;;1.70;1.50;;;3.30;98.20;;;;;;5035161;28;20590;-77
2023/11/25 00:41:29;;;;;;;1.67;1.47;;;3.30;98.20;;;;;;5025869;28;21059;-79
2023/11/25 00:43:56;;;;;;;1.70;1.50;;;3.30;98.20;;;;;;5038094;28;20487;-77
2023/11/25 00:46:22;;;;;;;1.70;1.60;;;3.20;98.20;;;;;;5018645;28;20480;-77
2023/11/25 00:48:49;;;;;;;1.67;1.50;;;3.20;98.20;;;;;;5034982;28;20518;-77
2023/11/25 00:51:17;;;;;;;1.70;1.50;;;3.20;98.20;;;;;;5024569;28;20481;-77
2023/11/25 00:53:44;;;;;;;1.67;1.40;;;3.20;98.20;;;;;;5061915;28;20896;-77
2023/11/25 00:56:11;;;;;;;1.67;1.40;;;3.20;98.20;;;;;;5060955;28;20491;-77
2023/11/25 00:58:38;;;;;;;1.70;1.50;;;3.20;98.20;;;;;;5076182;28;20577;-77
2023/11/25 01:01:05;;;;;;;1.70;1.43;;;3.20;98.20;;;;;;5059808;28;20593;-77
2023/11/25 01:03:32;;;;;;;1.70;1.50;;;3.20;98.20;;;;;;5078928;28;21023;-77
2023/11/25 01:05:59;;;;;;;1.70;1.50;;;3.10;98.20;;;;;;5058864;28;20532;-77
2023/11/25 01:08:29;;;;;;;1.70;1.50;;;3.10;98.20;;;;;;5078206;28;20461;-77
2023/11/25 01:10:56;;;;;;;1.70;1.50;;;3.10;98.20;;;;;;5054440;28;20480;-77
2023/11/25 01:13:22;;;;;;;1.70;1.50;;;3.10;98.20;;;;;;5077369;28;21051;-77
2023/11/25 01:15:51;;;;;;;1.60;1.40;;;3.10;98.20;;;;;;5058633;28;20461;-78
2023/11/25 01:18:18;;;;;;;1.67;1.50;;;3.10;98.20;;;;;;5090740;28;20664;-77
2023/11/25 01:20:44;;;;;;;1.67;1.50;;;3.10;98.20;;;;;;5069945;28;20467;-78
2023/11/25 01:23:11;;;;;;;1.70;1.50;;;3.20;98.20;;;;;;5059667;28;20972;-80
2023/11/25 01:25:39;;;;;;;1.73;1.63;;;3.30;98.20;;;;;;5070165;28;20472;-79
2023/11/25 01:28:06;;;;;;;1.70;1.50;;;3.30;98.20;;;;;;5076528;28;20567;-79
2023/11/25 01:30:34;;;;;;;1.67;1.40;;;3.30;98.20;;;;;;5070746;28;20461;-79
2023/11/25 01:33:02;;;;;;;1.70;1.40;;;3.30;98.20;;;;;;5076902;28;20541;-79
2023/11/25 01:35:29;;;;;;;1.67;1.40;;;3.40;98.20;;;;;;5071538;28;20520;-79
2023/11/25 01:37:56;;;;;;;1.70;1.40;;;3.40;98.20;;;;;;5070184;28;20557;-78
2023/11/25 01:40:23;;;;;;;1.67;1.40;;;3.30;98.20;;;;;;5071103;28;20464;-78
2023/11/25 01:42:52;;;;;;;1.63;1.40;;;3.30;98.20;;;;;;5066295;28;20817;-78
2023/11/25 01:45:19;;;;;;;1.70;1.50;;;3.30;98.20;;;;;;5069210;28;20473;-78
2023/11/25 01:47:46;;;;;;;1.67;1.40;;;3.30;98.20;;;;;;5083360;28;20556;-78
2023/11/25 01:50:14;;;;;;;1.70;1.40;;;3.30;98.20;;;;;;5067854;28;20558;-77
2023/11/25 01:52:43;;;;;;;1.67;1.50;;;3.30;98.20;;;;;;5072192;28;20936;-77
2023/11/25 01:55:11;;;;;;;1.63;1.40;;;3.20;98.20;;;;;;5068897;28;20576;-77
2023/11/25 01:57:39;;;;;;;1.70;1.47;;;3.20;98.20;;;;;;5070039;28;20545;-77
2023/11/25 02:00:11;;;;;;;1.63;1.40;;;3.20;98.20;;;;;;5069486;28;20520;-76
2023/11/25 02:02:39;;;;;;;1.63;1.50;;;3.20;98.20;;;;;;5071836;28;20487;-77
2023/11/25 02:05:07;;;;;;;1.67;1.50;;;3.20;98.20;;;;;;5069276;28;20539;-77
2023/11/25 02:07:35;;;;;;;1.63;1.40;;;3.20;98.20;;;;;;5078821;28;20510;-77
2023/11/25 02:10:02;;;;;;;1.67;1.40;;;3.10;98.20;;;;;;5067122;28;20542;-77
2023/11/25 02:12:30;;;;;;;1.67;1.50;;;3.10;98.20;;;;;;5068776;28;20506;-77
2023/11/25 02:14:57;;;;;;;1.63;1.50;;;3.10;98.20;;;;;;5070352;28;20520;-76
2023/11/25 02:17:25;;;;;;;1.63;1.50;;;3.00;98.20;;;;;;5078239;28;20741;-77
2023/11/25 02:19:58;;;;;;;1.70;1.50;;;3.00;98.20;;;;;;5070576;28;20520;-78
2023/11/25 02:22:26;;;;;;;1.60;1.40;;;3.00;98.20;;;;;;5078139;28;20924;-78
2023/11/25 02:24:54;;;;;;;1.70;1.50;;;3.00;98.20;;;;;;5072306;28;20489;-77
2023/11/25 02:27:21;;;;;;;1.67;1.50;;;3.00;98.20;;;;;;5069985;28;20597;-77
2023/11/25 02:29:49;;;;;;;1.67;1.40;;;3.00;98.20;;;;;;5069677;28;20467;-77
2023/11/25 02:32:17;;;;;;;1.67;1.50;;;2.90;98.20;;;;;;5069188;28;20487;-77
2023/11/25 02:34:45;;;;;;;1.70;1.50;;;2.90;98.20;;;;;;5071566;28;20860;-77
2023/11/25 02:37:13;;;;;;;1.67;1.40;;;2.90;98.20;;;;;;5072721;28;20482;-78
2023/11/25 02:39:40;;;;;;;1.70;1.50;;;2.90;98.20;;;;;;5071795;28;21046;-78
2023/11/25 02:42:12;;;;;;;1.67;1.50;;;2.90;98.20;;;;;;5066125;28;20935;-77
2023/11/25 02:44:40;;;;;;;1.70;1.60;;;2.90;98.20;;;;;;5071788;28;20540;-78
2023/11/25 02:47:06;;;;;;;1.63;1.40;;;2.90;98.20;;;;;;5073776;28;20476;-77
2023/11/25 02:49:33;;;;;;;1.67;1.47;;;2.80;98.20;;;;;;5070915;28;20457;-78
2023/11/25 02:52:00;;;;;;;1.63;1.40;;;2.90;98.20;;;;;;5066054;28;20494;-78
2023/11/25 02:54:27;;;;;;;1.63;1.50;;;2.80;98.20;;;;;;5072973;28;20861;-78
2023/11/25 02:56:54;;;;;;;1.70;1.50;;;2.80;98.20;;;;;;5069074;28;20491;-78
2023/11/25 02:59:23;;;;;;;1.70;1.40;;;2.80;98.20;;;;;;5072338;28;20485;-77
2023/11/25 03:01:51;;;;;;;1.67;1.40;;;2.80;98.20;;;;;;5066757;28;21105;-78
2023/11/25 03:04:19;;;;;;;1.70;1.50;;;2.80;98.20;;;;;;5074832;28;20481;-78
2023/11/25 03:06:48;;;;;;;1.70;1.40;;;2.80;98.20;;;;;;5065894;28;20512;-78
2023/11/25 03:09:14;;;;;;;1.63;1.50;;;2.80;98.20;;;;;;5074766;28;20453;-78
2023/11/25 03:11:41;;;;;;;1.70;1.50;;;2.80;98.20;;;;;;5061347;28;20487;-78
2023/11/25 03:14:08;;;;;;;1.70;1.50;;;2.80;98.20;;;;;;5076746;28;20873;-78
2023/11/25 03:16:36;;;;;;;1.67;1.40;;;2.80;98.20;;;;;;5066271;28;20478;-79
2023/11/25 03:19:06;;;;;;;1.70;1.50;;;2.70;98.20;;;;;;5076164;28;20568;-77
2023/11/25 03:21:34;;;;;;;1.70;1.40;;;2.70;98.20;;;;;;5066842;28;20483;-78
2023/11/25 03:24:00;;;;;;;1.70;1.53;;;2.70;98.20;;;;;;5083237;28;20480;-77
2023/11/25 03:26:28;;;;;;;1.67;1.50;;;2.70;98.20;;;;;;5067472;28;20479;-77
2023/11/25 03:28:55;;;;;;;1.70;1.50;;;2.70;98.20;;;;;;5078106;28;20526;-77
2023/11/25 03:31:23;;;;;;;1.70;1.50;;;2.70;98.20;;;;;;5066859;28;20486;-78
2023/11/25 03:33:52;;;;;;;1.70;1.40;;;2.70;98.20;;;;;;5079379;28;20521;-78
2023/11/25 03:36:19;;;;;;;1.67;1.40;;;2.70;98.20;;;;;;5060759;28;20483;-77
2023/11/25 03:38:46;;;;;;;1.63;1.50;;;2.80;98.20;;;;;;5079900;28;20499;-78
2023/11/25 03:41:13;;;;;;;1.70;1.50;;;2.80;98.20;;;;;;5066435;28;20491;-78
2023/11/25 03:43:40;;;;;;;1.70;1.50;;;2.80;98.20;;;;;;5089442;28;20473;-79
2023/11/25 03:46:07;;;;;;;1.70;1.50;;;2.80;98.20;;;;;;5065889;28;20661;-78
2023/11/25 03:48:34;;;;;;;1.70;1.50;;;2.80;98.20;;;;;;5087865;28;20468;-78
2023/11/25 03:51:04;;;;;;;1.67;1.50;;;2.80;98.20;;;;;;5059794;28;20834;-77
2023/11/25 03:53:31;;;;;;;1.70;1.50;;;2.80;98.20;;;;;;5084792;28;20997;-78
2023/11/25 03:55:59;;;;;;;1.70;1.50;;;2.80;98.20;;;;;;5061710;28;20488;-78
2023/11/25 03:58:26;;;;;;;1.60;1.50;;;2.90;98.20;;;;;;5094205;28;21039;-79
2023/11/25 04:00:55;;;;;;;1.67;1.50;;;2.90;98.20;;;;;;5062957;28;20465;-80
2023/11/25 04:03:22;;;;;;;1.70;1.50;;;2.90;98.20;;;;;;5092849;28;20461;-80
2023/11/25 04:05:49;;;;;;;1.67;1.40;;;2.90;98.20;;;;;;5063394;28;20461;-82
2023/11/25 04:08:17;;;;;;;1.70;1.40;;;3.00;98.20;;;;;;5097991;28;20986;-80
2023/11/25 04:10:44;;;;;;;1.63;1.40;;;3.00;98.20;;;;;;5074298;28;20463;-81
2023/11/25 04:13:10;;;;;;;1.70;1.50;;;3.00;98.20;;;;;;5052643;28;20479;-81
2023/11/25 04:15:38;;;;;;;1.67;1.50;;;3.10;98.20;;;;;;5072732;28;20461;-80
2023/11/25 04:18:05;;;;;;;1.70;1.40;;;3.10;98.20;;;;;;5085614;28;20686;-81
2023/11/25 04:20:33;;;;;;;1.67;1.50;;;3.10;98.20;;;;;;5070155;28;20488;-79
2023/11/25 04:23:05;;;;;;;1.70;1.50;;;3.10;98.20;;;;;;5088690;28;20482;-79
2023/11/25 04:25:34;;;;;;;1.67;1.43;;;3.10;98.20;;;;;;5072683;28;20499;-79
2023/11/25 04:28:04;;;;;;;1.67;1.40;;;3.10;98.20;;;;;;5088965;28;20494;-78
2023/11/25 04:30:31;;;;;;;1.70;1.50;;;3.10;98.20;;;;;;5068939;28;20515;-79
2023/11/25 04:32:59;;;;;;;1.70;1.60;;;3.10;98.20;;;;;;5088041;28;20850;-78
2023/11/25 04:35:26;;;;;;;1.70;1.50;;;3.10;98.20;;;;;;5070121;28;20496;-79
2023/11/25 04:37:53;;;;;;;1.70;1.50;;;3.10;98.20;;;;;;5088299;28;20507;-78
2023/11/25 04:40:20;;;;;;;1.60;1.40;;;3.10;98.20;;;;;;5072403;28;20862;-78
2023/11/25 04:42:48;;;;;;;1.63;1.50;;;3.10;98.20;;;;;;5086351;28;20576;-78
2023/11/25 04:45:18;;;;;;;1.60;1.40;;;3.10;98.20;;;;;;5074686;28;20492;-79
2023/11/25 04:47:46;;;;;;;1.70;1.60;;;3.10;98.20;;;;;;5078557;28;21049;-79
2023/11/25 04:50:13;;;;;;;5.63;5.33;;;3.10;98.20;;;;;;5067501;28;20457;-79
2023/11/25 04:52:40;;;;;;;1.67;1.40;;;3.10;98.20;;;;;;5084684;28;20562;-78
2023/11/25 04:55:08;;;;;;;1.60;1.40;;;3.10;98.20;;;;;;5070123;28;20503;-79
2023/11/25 04:57:35;;;;;;;1.70;1.43;;;3.10;98.20;;;;;;5087107;28;20507;-79
2023/11/25 05:00:08;;;;;;;1.70;1.60;;;3.10;98.20;;;;;;5069668;28;20481;-79
2023/11/25 05:02:36;;;;;;;1.63;1.40;;;3.10;98.20;;;;;;5085889;28;20547;-78
2023/11/25 05:05:04;;;;;;;1.60;1.40;;;3.10;98.20;;;;;;5068814;28;20985;-79
2023/11/25 05:07:33;;;;;;;1.70;1.43;;;3.10;98.20;;;;;;5080806;28;20479;-78
2023/11/25 05:10:00;;;;;;;1.70;1.47;;;3.10;98.20;;;;;;5068852;28;21035;-79
2023/11/25 05:12:27;;;;;;;1.60;1.40;;;3.10;98.20;;;;;;5085863;28;20479;-79
2023/11/25 05:14:54;;;;;;;1.63;1.40;;;3.20;98.20;;;;;;5074394;28;20516;-79
2023/11/25 05:17:24;;;;;;;1.63;1.40;;;3.20;98.20;;;;;;5048750;28;20510;-79
2023/11/25 05:19:51;;;;;;;1.60;1.40;;;3.20;98.20;;;;;;5066897;28;20604;-79
2023/11/25 05:22:18;;;;;;;1.70;1.40;;;3.30;98.20;;;;;;5083074;28;20617;-79
2023/11/25 05:24:45;;;;;;;1.60;1.40;;;3.30;98.20;;;;;;5080307;28;20916;-80
2023/11/25 05:27:13;;;;;;;1.63;1.40;;;3.30;98.20;;;;;;5074360;28;20508;-80
2023/11/25 05:29:39;;;;;;;1.67;1.43;;;3.30;98.20;;;;;;5075315;28;20465;-80
2023/11/25 05:32:08;;;;;;;1.70;1.50;;;3.30;98.20;;;;;;5076082;28;20476;-80
2023/11/25 05:34:36;;;;;;;1.63;1.40;;;3.40;98.20;;;;;;5080339;28;20489;-80
2023/11/25 05:37:05;;;;;;;1.60;1.37;;;3.40;98.20;;;;;;5066875;28;20481;-81
2023/11/25 05:39:32;;;;;;;1.63;1.40;;;3.40;98.20;;;;;;5074197;28;20481;-81
2023/11/25 05:41:59;;;;;;;1.60;1.40;;;3.40;98.20;;;;;;5064788;28;20480;-80
2023/11/25 05:44:26;;;;;;;1.63;1.47;;;3.40;98.20;;;;;;5072679;28;20987;-80
2023/11/25 05:46:55;;;;;;;1.63;1.50;;;3.50;98.20;;;;;;5062224;28;20579;-81
2023/11/25 05:49:22;;;;;;;1.60;1.40;;;3.50;98.20;;;;;;5073949;28;20607;-81
2023/11/25 05:51:50;;;;;;;1.67;1.40;;;3.50;98.20;;;;;;5058615;28;20894;-80
2023/11/25 05:54:18;;;;;;;1.63;1.40;;;3.50;98.20;;;;;;5071003;28;20488;-80
2023/11/25 05:56:45;;;;;;;1.63;1.40;;;3.50;98.20;;;;;;5062937;28;20515;-81
2023/11/25 05:59:13;;;;;;;1.67;1.40;;;3.60;98.20;;;;;;5071423;28;20453;-81
2023/11/25 06:01:40;;;;;;;1.63;1.40;;;3.60;98.20;;;;;;5063110;28;20473;-81
2023/11/25 06:04:07;;;;;;;1.70;1.40;;;3.60;98.20;;;;;;5073049;28;20545;-81
2023/11/25 06:06:34;;;;;;;1.70;1.40;;;3.60;98.20;;;;;;5063935;28;20479;-81
2023/11/25 06:09:05;;;;;;;1.67;1.40;;;3.70;98.20;;;;;;5071395;28;20445;-80
2023/11/25 06:11:32;;;;;;;1.70;1.40;;;3.70;98.20;;;;;;5062369;28;20491;-79
2023/11/25 06:13:59;;;;;;;1.63;1.40;;;3.70;98.20;;;;;;5073976;28;20489;-80
2023/11/25 06:16:26;;;;;;;1.60;1.40;;;3.80;98.20;;;;;;5062602;28;20933;-79
2023/11/25 06:18:54;;;;;;;1.63;1.40;;;3.80;98.20;;;;;;5071091;28;20845;-80
2023/11/25 06:21:21;;;;;;;1.67;1.40;;;3.80;98.20;;;;;;5061898;28;20568;-79
2023/11/25 06:23:50;;;;;;;1.63;1.40;;;3.90;98.20;;;;;;5078992;28;20477;-79
2023/11/25 06:26:19;;;;;;;1.63;1.40;;;3.90;98.20;;;;;;5061163;28;20484;-79
2023/11/25 06:28:48;;;;;;;1.70;1.57;;;3.90;98.20;;;;;;5069862;28;20535;-81
2023/11/25 06:31:16;;;;;;;1.70;1.50;;;3.90;98.20;;;;;;5059326;28;20971;-81
2023/11/25 06:33:45;;;;;;;1.70;1.40;;;4.00;98.20;;;;;;5067694;28;21027;-81
2023/11/25 06:36:26;;;;;;;1.67;1.50;;;4.00;98.20;;;;;;5060971;28;20526;-81
2023/11/25 06:38:54;;;;;;;1.60;1.40;;;4.00;98.20;;;;;;5074296;28;20470;-81
2023/11/25 06:41:25;;;;;;;1.60;1.40;;;4.10;98.20;;;;;;5062431;28;20707;-81
2023/11/25 06:43:52;;;;;;;1.63;1.30;;;4.10;98.20;;;;;;5072227;28;20485;-82
2023/11/25 06:46:18;;;;;;;1.60;1.37;;;4.10;98.20;;;;;;5061107;28;20481;-81
2023/11/25 06:48:45;;;;;;;1.67;1.40;;;4.10;98.20;;;;;;5077995;28;20472;-81
2023/11/25 06:51:12;;;;;;;1.60;1.40;;;4.10;98.20;;;;;;5058756;28;21107;-81
2023/11/25 06:53:40;;;;;;;1.60;1.40;;;4.10;98.20;;;;;;5078488;28;20489;-81
2023/11/25 06:56:16;;;;;;;1.63;1.40;;;4.20;98.20;;;;;;5059330;28;21044;-81
2023/11/25 06:58:45;;;;;;;1.60;1.40;;;4.10;98.20;;;;;;5079611;28;20468;-81
2023/11/25 07:01:18;;;;;;;1.70;1.50;;;4.20;98.20;;;;;;5061040;28;20995;-81
2023/11/25 07:03:46;;;;;;;1.60;1.33;;;4.20;98.20;;;;;;5073070;28;20481;-81
2023/11/25 07:06:13;;;;;;;1.63;1.43;;;4.20;98.20;;;;;;5059425;28;20476;-80
2023/11/25 07:08:42;;;;;;;1.60;1.40;;;4.20;98.20;;;;;;5079629;28;20465;-80
2023/11/25 07:11:13;;;;;;;1.60;1.40;;;4.20;98.20;;;;;;5058145;28;20539;-80
2023/11/25 07:13:39;;;;;;;1.60;1.30;;;4.20;98.20;;;;;;5082333;28;20574;-79
2023/11/25 07:16:11;;;;;;;1.60;1.40;;;4.20;98.20;;;;;;5061281;28;20552;-79
2023/11/25 07:18:42;;;;;;;1.60;1.40;;;4.20;98.20;;;;;;5072240;28;20462;-79
2023/11/25 07:21:11;;;;;;;1.60;1.30;;;4.20;98.20;;;;;;5060369;28;20480;-80
2023/11/25 07:23:38;;;;;;;1.67;1.40;;;4.20;98.20;;;;;;5084675;28;21046;-79
2023/11/25 07:26:06;;;;;;;1.60;1.40;;;4.20;98.20;;;;;;5061320;28;20469;-79
2023/11/25 07:28:33;;;;;;;1.70;1.60;;;4.20;98.20;;;;;;5084633;28;20851;-79
2023/11/25 07:31:00;;;;;;;1.67;1.50;;;4.20;98.20;;;;;;5060340;28;20461;-77
2023/11/25 07:33:29;;;;;;;1.60;1.40;;;4.20;98.20;;;;;;5079353;28;20469;-77
2023/11/25 07:35:55;;;;;;;1.60;1.40;;;4.20;98.20;;;;;;5059450;28;20548;-77
2023/11/25 07:38:23;;;;;;;1.63;1.40;;;4.10;98.20;;;;;;5079367;28;20493;-77
2023/11/25 07:40:50;;;;;;;1.63;1.30;;;4.10;98.20;;;;;;5059787;28;20573;-76
2023/11/25 07:43:17;;;;;;;1.60;1.40;;;4.10;98.20;;;;;;5082183;28;20465;-77
2023/11/25 07:45:45;;;;;;;1.70;1.50;;;4.10;98.20;;;;;;5068352;28;20480;-78
2023/11/25 07:48:11;;;;;;;1.63;1.40;;;4.10;98.20;;;;;;5076635;28;20491;-77
2023/11/25 07:50:45;;;;;;;1.70;1.50;;;4.20;98.20;;;;;;5070331;28;20461;-78
2023/11/25 07:53:12;;;;;;;1.70;1.40;;;4.20;98.20;;;;;;5058766;28;20530;-78
2023/11/25 07:55:39;;;;;;;1.60;1.30;;;4.20;98.20;;;;;;5070645;28;20457;-78
2023/11/25 07:58:06;;;;;;;1.60;1.40;;;4.30;98.20;;;;;;5074343;28;20468;-78
2023/11/25 08:00:33;;;;;;;1.67;1.40;;;4.30;98.20;;;;;;5069258;28;20521;-78
2023/11/25 08:03:02;;;;;;;1.60;1.40;;;4.40;98.20;;;;;;5073973;28;20484;-78
2023/11/25 08:05:29;;;;;;;1.67;1.40;;;4.40;98.20;;;;;;5068593;28;20489;-77
2023/11/25 08:07:57;;;;;;;1.60;1.30;;;4.50;98.20;;;;;;5067369;28;20477;-77
2023/11/25 08:10:31;;;;;;;1.67;1.30;;;4.60;98.20;;;;;;5068120;28;20971;-78
2023/11/25 08:12:57;;;;;;;1.67;1.30;;;4.60;98.20;;;;;;5064489;28;20572;-77
2023/11/25 08:15:24;;;;;;;1.63;1.30;;;4.60;98.20;;;;;;5069723;28;20484;-78
2023/11/25 08:17:51;;;;;;;1.60;1.30;;;4.70;98.20;;;;;;5071224;28;20475;-77
2023/11/25 08:20:18;;;;;;;1.60;1.40;;;4.70;98.20;;;;;;5066449;28;20507;-77
2023/11/25 08:22:45;;;;;;;1.60;1.30;;;4.70;98.20;;;;;;5068971;28;20754;-76
2023/11/25 08:25:13;;;;;;;1.60;1.40;;;4.70;98.20;;;;;;5066202;28;20674;-77
2023/11/25 08:27:41;;;;;;;1.60;1.40;;;4.70;98.20;;;;;;5070009;28;20485;-77
2023/11/25 08:30:09;;;;;;;1.60;1.30;;;4.70;98.20;;;;;;5063989;28;20714;-77
2023/11/25 08:32:38;;;;;;;1.63;1.40;;;4.70;98.20;;;;;;5070340;28;20472;-77
2023/11/25 08:35:05;;;;;;;1.63;1.30;;;4.80;98.20;;;;;;5064646;28;20489;-77
2023/11/25 08:37:32;;;;;;;1.67;1.40;;;4.80;98.20;;;;;;5070131;28;20472;-77
2023/11/25 08:39:59;;;;;;;1.60;1.30;;;4.80;98.20;;;;;;5067125;28;20461;-77
2023/11/25 08:42:30;;;;;;;1.70;1.53;;;4.80;98.20;;;;;;5060232;28;20477;-77
2023/11/25 08:44:57;;;;;;;1.60;1.40;;;4.80;98.20;;;;;;5064462;28;20560;-77
2023/11/25 08:47:24;;;;;;;1.67;1.40;;;4.80;98.20;;;;;;5064299;28;20509;-78
2023/11/25 08:49:51;;;;;;;1.60;1.30;;;4.80;98.20;;;;;;5070905;28;20472;-81
2023/11/25 08:52:18;;;;;;;1.63;1.40;;;4.80;98.20;;;;;;5065252;28;20568;-78
2023/11/25 08:54:48;;;;;;;1.60;1.30;;;4.80;98.20;;;;;;5070913;28;20575;-78
2023/11/25 08:57:16;;;;;;;1.63;1.30;;;4.80;98.20;;;;;;5069038;28;20526;-78
2023/11/25 08:59:45;;;;;;;1.63;1.40;;;4.90;98.20;;;;;;5078343;28;20500;-81
2023/11/25 09:02:12;;;;;;;1.63;1.30;;;4.90;98.20;;;;;;5063921;28;20568;-78
2023/11/25 09:04:42;;;;;;;1.60;1.33;;;5.00;98.20;;;;;;5068231;28;20489;-77
2023/11/25 09:07:13;;;;;;;1.63;1.40;;;5.10;98.20;;;;;;5057081;28;20477;-79
2023/11/25 09:09:40;;;;;;;1.67;1.40;;;5.20;98.20;;;;;;5062236;28;20467;-77
2023/11/25 09:12:08;;;;;;;1.63;1.30;;;5.30;98.20;;;;;;5062607;28;20653;-78
2023/11/25 09:14:36;;;;;;;1.70;1.40;;;5.30;98.20;;;;;;5068230;28;20485;-78
2023/11/25 09:17:05;;;;;;;1.60;1.30;;;5.40;98.20;;;;;;5057207;28;21076;-77
2023/11/25 09:19:32;;;;;;;1.60;1.30;;;5.40;98.20;;;;;;5066018;28;20566;-76
2023/11/25 09:21:59;;;;;;;1.60;1.30;;;5.40;98.20;;;;;;5057987;28;21065;-76
2023/11/25 09:24:26;;;;;;;1.60;1.30;;;5.40;98.20;;;;;;5065314;28;20534;-77
2023/11/25 09:26:54;;;;;;;1.67;1.40;;;5.50;98.20;;;;;;5064325;28;20529;-78
2023/11/25 09:29:21;;;;;;;1.63;1.30;;;5.50;98.20;;;;;;5072393;28;20575;-78
2023/11/25 09:31:49;;;;;;;1.60;1.30;;;5.50;98.20;;;;;;5060939;28;20476;-78
2023/11/25 09:34:18;;;;;;;1.60;1.30;;;5.50;98.20;;;;;;5072341;28;20496;-78
2023/11/25 09:36:45;;;;;;;1.80;1.30;;;5.50;98.20;;;;;;5061346;28;20472;-77
2023/11/25 09:39:14;;;;;;;1.60;1.30;;;5.50;98.20;;;;;;5073853;28;20545;-81
2023/11/25 09:41:43;;;;;;;1.60;1.30;;;5.60;98.20;;;;;;5059099;28;20492;-80
2023/11/25 09:44:14;;;;;;;1.70;1.40;;;5.60;98.20;;;;;;5068893;28;20862;-80
2023/11/25 09:46:42;;;;;;;1.70;1.40;;;5.70;98.20;;;;;;5057264;28;20477;-77
2023/11/25 09:49:09;;;;;;;1.70;1.40;;;5.90;98.20;;;;;;5062004;28;20585;-76
2023/11/25 09:51:38;;;;;;;1.67;1.30;;;5.90;98.20;;;;;;5053315;28;20476;-77
2023/11/25 09:54:07;;;;;;;1.60;1.30;;;6.00;98.20;;;;;;5070565;28;20965;-76
2023/11/25 09:56:36;;;;;;;1.60;1.30;;;6.00;98.20;;;;;;5060638;28;20621;-76
2023/11/25 09:59:05;;;;;;;1.70;1.20;;;6.10;98.20;;;;;;5071654;28;20777;-78
2023/11/25 10:01:33;;;;;;;1.60;1.30;;;6.10;98.20;;;;;;5059598;28;20506;-77
2023/11/25 10:04:03;;;;;;;1.67;1.30;;;6.20;98.20;;;;;;5073637;28;20539;-78
2023/11/25 10:06:30;;;;;;;1.60;1.30;;;6.20;98.20;;;;;;5060257;28;21025;-77
2023/11/25 10:08:59;;;;;;;1.63;1.30;;;6.30;98.20;;;;;;5068707;28;20559;-76
2023/11/25 10:11:30;;;;;;;1.60;1.30;;;6.40;98.20;;;;;;5055181;28;20562;-74
2023/11/25 10:13:57;;;;;;;1.60;1.30;;;6.50;98.20;;;;;;5067533;28;20499;-77
2023/11/25 10:16:28;;;;;;;1.60;1.20;;;6.50;98.20;;;;;;5053226;28;20478;-76
2023/11/25 10:18:56;;;;;;;1.67;1.30;;;6.50;98.20;;;;;;5065184;28;20461;-77
2023/11/25 10:21:23;;;;;;;1.60;1.30;;;6.50;98.20;;;;;;5057547;28;20481;-76
2023/11/25 10:23:54;;;;;;;1.60;1.30;;;6.50;98.20;;;;;;5067807;28;20489;-76
2023/11/25 10:26:23;;;;;;;1.63;1.30;;;6.50;98.20;;;;;;5056951;28;20480;-77
2023/11/25 10:28:50;;;;;;;1.60;1.30;;;6.60;98.20;;;;;;5072764;28;20476;-78
2023/11/25 10:31:19;;;;;;;1.60;1.30;;;6.70;98.20;;;;;;5055970;28;20481;-80
2023/11/25 10:33:46;;;;;;;1.60;1.20;;;6.80;98.20;;;;;;5069415;28;20496;-77
2023/11/25 10:36:13;;;;;;;1.60;1.20;;;6.90;98.20;;;;;;5055665;28;20534;-77
2023/11/25 10:38:41;;;;;;;1.60;1.30;;;6.90;98.20;;;;;;5078020;28;20469;-76
2023/11/25 10:41:11;;;;;;;1.60;1.30;;;7.00;98.20;;;;;;5054993;28;20511;-77
2023/11/25 10:43:44;;;;;;;1.60;1.30;;;7.10;98.20;;;;;;5074424;28;20490;-76
2023/11/25 10:46:12;;;;;;;1.60;1.30;;;7.20;98.20;;;;;;5052973;28;20518;-75
2023/11/25 10:48:40;;;;;;;1.60;1.20;;;7.30;98.20;;;;;;5070900;28;20504;-76
2023/11/25 10:51:08;;;;;;;1.60;1.30;;;7.40;98.20;;;;;;5051146;28;20482;-77
2023/11/25 10:53:37;;;;;;;1.60;1.20;;;7.40;98.20;;;;;;5073972;28;20483;-80
2023/11/25 10:56:05;;;;;;;1.60;1.20;;;7.40;98.20;;;;;;5054042;28;20480;-75
2023/11/25 10:58:35;;;;;;;1.60;1.20;;;7.40;98.20;;;;;;5071562;28;20500;-76
2023/11/25 11:01:04;;;;;;;1.60;1.30;;;7.40;98.20;;;;;;5052973;28;20489;-78
2023/11/25 11:03:53;;;;;;;1.60;1.30;;;7.30;98.20;;;;;;5072823;28;20466;-77
2023/11/25 11:06:24;;;;;;;1.60;1.27;;;7.20;98.20;;;;;;5055073;28;20510;-75
2023/11/25 11:08:53;;;;;;;1.60;1.30;;;7.20;98.20;;;;;;5064870;28;20692;-77
2023/11/25 11:11:31;;;;;;;1.67;1.30;;;7.20;98.20;;;;;;5055019;28;20483;-78
2023/11/25 11:14:13;;;;;;;1.63;1.27;;;7.20;98.20;;;;;;5065557;28;20868;-75
2023/11/25 11:16:50;;;;;;;1.60;1.30;;;7.30;98.20;;;;;;5051882;28;20527;-75
2023/11/25 11:19:21;;;;;;;1.60;1.20;;;7.40;98.20;;;;;;5064254;28;20568;-79
2023/11/25 11:21:53;;;;;;;1.60;1.23;;;7.50;98.20;;;;;;5060416;28;20520;-77
2023/11/25 11:24:26;;;;;;;1.60;1.20;;;7.60;98.20;;;;;;5069165;28;20831;-80
2023/11/25 11:27:04;;;;;;;1.60;1.30;;;7.70;98.20;;;;;;5056823;28;20489;-76
2023/11/25 11:29:37;;;;;;;1.60;1.20;;;7.70;98.20;;;;;;5061436;28;20489;-77
2023/11/25 11:32:08;;;;;;;1.70;1.30;;;7.80;98.20;;;;;;5059066;28;20515;-77
2023/11/25 11:34:36;;;;;;;1.63;1.27;;;7.80;98.20;;;;;;5066313;28;20933;-77
2023/11/25 11:37:06;;;;;;;1.60;1.20;;;7.70;98.20;;;;;;5056027;28;20544;-78
2023/11/25 11:39:58;;;;;;;1.60;1.10;;;7.70;98.20;;;;;;5064187;28;20566;-77
2023/11/25 11:42:34;;;;;;;1.60;1.20;;;7.70;98.20;;;;;;5061142;28;21197;-77
2023/11/25 11:47:59;;;;;;;1.60;1.20;;;7.60;98.20;;;;;;4982225;28;20881;-78
2023/11/25 11:50:29;;;;;;;1.63;1.30;;;7.60;98.20;;;;;;5064217;28;20988;-78
2023/11/25 11:53:16;;;;;;;1.63;1.27;;;7.50;98.20;;;;;;5062474;28;20480;-75
2023/11/25 11:55:52;;;;;;;1.60;1.20;;;7.30;98.20;;;;;;5057997;28;20566;-76
2023/11/25 11:58:20;;;;;;;1.60;1.20;;;7.30;98.20;;;;;;5054127;28;20483;-78
2023/11/25 12:00:48;;;;;;;1.63;1.20;;;7.10;98.20;;;;;;5064012;28;20476;-76
2023/11/25 12:03:18;;;;;;;1.60;1.20;;;7.10;98.20;;;;;;5081044;28;20517;-78
2023/11/25 12:05:46;;;;;;;1.60;1.20;;;7.00;98.20;;;;;;5068839;28;20836;-77
2023/11/25 12:08:13;;;;;;;1.60;1.20;;;7.00;98.20;;;;;;5049339;28;21233;-77
2023/11/25 12:10:41;;;;;;;1.60;1.20;;;7.00;98.20;;;;;;5062539;28;20718;-77
2023/11/25 12:13:11;;;;;;;1.63;1.20;;;7.00;98.20;;;;;;5058485;28;20488;-76
2023/11/25 12:15:37;;;;;;;1.60;1.20;;;7.00;98.20;;;;;;5061415;28;21199;-77
2023/11/25 12:18:06;;;;;;;1.60;1.20;;;7.00;98.20;;;;;;5065629;28;20484;-76
2023/11/25 12:20:34;;;;;;;1.60;1.20;;;7.10;98.20;;;;;;5061532;28;20469;-76
2023/11/25 12:23:08;;;;;;;1.60;1.20;;;7.10;98.20;;;;;;5067370;28;20962;-76
2023/11/25 12:25:36;;;;;;;1.60;1.20;;;7.20;98.20;;;;;;5060226;28;20481;-76
2023/11/25 12:28:07;;;;;;;1.60;1.20;;;7.20;98.20;;;;;;5064969;28;20488;-76
2023/11/25 12:30:36;;;;;;;1.67;1.30;;;7.30;98.20;;;;;;5060398;28;20496;-76
2023/11/25 12:33:05;;;;;;;1.60;1.20;;;7.30;98.20;;;;;;5057209;28;20491;-76
2023/11/25 12:35:35;;;;;;;1.60;1.20;;;7.30;98.20;;;;;;5060604;28;20493;-76
2023/11/25 12:38:05;;;;;;;1.60;1.20;;;7.30;98.20;;;;;;5062183;28;20559;-77
2023/11/25 12:40:32;;;;;;;1.60;1.20;;;7.30;98.20;;;;;;5061364;28;20566;-77
2023/11/25 12:43:02;;;;;;;1.63;1.33;;;7.30;98.20;;;;;;5056568;28;20519;-76
2023/11/25 12:45:33;;;;;;;1.60;1.20;;;7.30;98.20;;;;;;5061806;28;20847;-77
2023/11/25 12:48:02;;;;;;;1.60;1.20;;;7.30;98.20;;;;;;5056344;28;20480;-76
2023/11/25 12:50:30;;;;;;;1.60;1.20;;;7.30;98.20;;;;;;5063203;28;20489;-76
2023/11/25 12:53:10;;;;;;;1.60;1.20;;;7.30;98.20;;;;;;5041410;28;20485;-76
2023/11/25 12:55:39;;;;;;;1.60;1.20;;;7.40;98.20;;;;;;5062955;28;20767;-77
2023/11/25 12:58:11;;;;;;;1.60;1.20;;;7.50;98.20;;;;;;5060692;28;20485;-77
2023/11/25 13:00:44;;;;;;;1.60;1.30;;;7.50;98.20;;;;;;5064617;28;20466;-77
2023/11/25 13:03:12;;;;;;;1.60;1.20;;;7.50;98.20;;;;;;5048925;28;20567;-77
2023/11/25 13:05:39;;;;;;;1.60;1.20;;;7.50;98.20;;;;;;5062708;28;20478;-76
2023/11/25 13:08:27;;;;;;;1.60;1.20;;;7.50;98.20;;;;;;5066428;28;21076;-76